Troupsburg, New York
Current Conditions -  °F | °C
As of 1:56 PM on Thursday 30 Oct 2014 (Local Time) from KELZ Reporting Station
Overcast Overcast  
Wind Chill: 40°   Ceiling: 2400
Heat Index: 44°   Visibility: 10mi
Dew Point: 33°   Wind: 8mph
Humidity: 65%   Direction: 310°NW
Pressure: 30.04"   Gusts: NA
Location:  42.04°N, 77.55°W
Report Text: KELZ 301756Z AUTO 31007KT 10SM BKN024 OVC032 07/01 A3004 RMK AO2 SLP183 T00670006 10067 20039 58004
Loading
Personal Weather Stations






























Interactive Weather Map
Tropical Storm Tracking
New forecast layout! Learn more

10-Day Weather Forecast

Advertisements
Track Severe Weather on mobile